| time (UTC) | temp C | wind direction | speed KPH | gust KPH | rain 1hr cm | rain 24hr cm | rain mn cm | humidity % | barometer mb |
| 20260507160040 | -17 | 0.0 | 0.0 | 0.00 | 0.00 | 0.00 | 1020.8 | ||
| 20260507154532 | -17 | 0.0 | 0.0 | 0.00 | 0.00 | 0.00 | 1021.0 | ||
| 20260507153034 | 17 | 152 | 0.0 | 1.6 | 0.00 | 0.00 | 0.00 | 42 | 1021.1 |
| 20260507151512 | 15 | 165 | 0.0 | 1.6 | 0.00 | 0.00 | 0.00 | 44 | 1021.2 |
| 20260507150010 | 14 | 174 | 0.0 | 3.2 | 0.00 | 0.00 | 0.00 | 46 | 1021.3 |
| 20260507144508 | 13 | 153 | 0.0 | 3.2 | 0.00 | 0.00 | 0.00 | 52 | 1021.2 |
| 20260507143004 | 12 | 175 | 0.0 | 3.2 | 0.00 | 0.00 | 0.00 | 58 | 1021.3 |
| 20260507141502 | 12 | 176 | 1.6 | 3.2 | 0.00 | 0.00 | 0.00 | 56 | 1021.4 |
| 20260507140002 | 12 | 177 | 0.0 | 3.2 | 0.00 | 0.00 | 0.00 | 53 | 1021.3 |
| 20260507134552 | 11 | 180 | 1.6 | 3.2 | 0.00 | 0.00 | 0.00 | 54 | 1021.3 |
| 20260507133051 | 11 | 180 | 1.6 | 3.2 | 0.00 | 0.00 | 0.00 | 54 | 1021.2 |
| 20260507131548 | 11 | 181 | 1.6 | 3.2 | 0.00 | 0.00 | 0.00 | 53 | 1021.3 |
| 20260507130059 | 11 | 184 | 1.6 | 4.8 | 0.00 | 0.00 | 0.00 | 53 | 1021.3 |
| 20260507124607 | 11 | 175 | 1.6 | 3.2 | 0.00 | 0.00 | 0.00 | 54 | 1021.3 |
| 20260507123103 | 11 | 181 | 1.6 | 3.2 | 0.00 | 0.00 | 0.00 | 53 | 1021.3 |
| 20260507121556 | 12 | 182 | 1.6 | 3.2 | 0.00 | 0.00 | 0.00 | 53 | 1021.3 |
| 20260507120043 | 12 | 184 | 1.6 | 4.8 | 0.00 | 0.00 | 0.00 | 53 | 1021.6 |
| 20260507114529 | 12 | 183 | 1.6 | 4.8 | 0.00 | 0.00 | 0.00 | 52 | 1021.7 |
| 20260507113029 | 12 | 177 | 1.6 | 4.8 | 0.00 | 0.00 | 0.00 | 54 | 1021.8 |
| 20260507111524 | 12 | 176 | 1.6 | 4.8 | 0.00 | 0.00 | 0.00 | 54 | 1022.1 |
| 20260507110026 | 11 | 179 | 1.6 | 4.8 | 0.00 | 0.03 | 0.00 | 63 | 1022.1 |
| 20260507104521 | 11 | 190 | 1.6 | 4.8 | 0.00 | 0.03 | 0.00 | 64 | 1022.2 |
| 20260507103021 | 11 | 183 | 1.6 | 4.8 | 0.00 | 0.03 | 0.00 | 65 | 1022.4 |
| 20260507101525 | 10 | 183 | 1.6 | 3.2 | 0.00 | 0.03 | 0.00 | 67 | 1022.5 |
| 20260507100021 | 11 | 181 | 1.6 | 3.2 | 0.00 | 0.03 | 0.00 | 67 | 1022.5 |
| 20260507094504 | 11 | 174 | 0.0 | 3.2 | 0.00 | 0.03 | 0.00 | 67 | 1022.7 |
| 20260507093002 | 11 | 167 | 0.0 | 4.8 | 0.00 | 0.03 | 0.00 | 65 | 1022.9 |
| 20260507091600 | 11 | 181 | 0.0 | 4.8 | 0.00 | 0.03 | 0.00 | 63 | 1023.0 |
| 20260507090058 | 11 | 182 | 1.6 | 4.8 | 0.00 | 0.03 | 0.00 | 63 | 1023.1 |
| 20260507084559 | 10 | 182 | 1.6 | 4.8 | 0.00 | 0.03 | 0.00 | 64 | 1023.3 |
| 20260507083107 | 10 | 179 | 0.0 | 3.2 | 0.00 | 0.03 | 0.00 | 65 | 1023.5 |
| 20260507081558 | 10 | 174 | 1.6 | 3.2 | 0.00 | 0.03 | 0.00 | 66 | 1023.6 |
| 20260507080049 | 11 | 173 | 0.0 | 3.2 | 0.00 | 0.03 | 0.00 | 63 | 1023.7 |
| 20260507074535 | 10 | 172 | 0.0 | 1.6 | 0.00 | 0.03 | 0.00 | 63 | 1023.8 |
| 20260507073039 | 11 | 174 | 0.0 | 3.2 | 0.00 | 0.03 | 0.00 | 63 | 1023.8 |
| 20260507071532 | 10 | 165 | 0.0 | 3.2 | 0.00 | 0.03 | 0.00 | 65 | 1024.0 |
| 20260507070036 | 11 | 181 | 0.0 | 3.2 | 0.00 | 0.03 | 0.00 | 65 | 1024.1 |
| 20260507064534 | 11 | 186 | 0.0 | 3.2 | 0.00 | 0.03 | 0.00 | 63 | 1024.2 |
| 20260507063029 | 11 | 212 | 0.0 | 6.4 | 0.00 | 0.03 | 0.00 | 64 | 1024.3 |
| 20260507061521 | 11 | 164 | 0.0 | 1.6 | 0.00 | 0.03 | 0.00 | 65 | 1024.4 |
| 20260507060021 | 11 | 176 | 0.0 | 1.6 | 0.00 | 0.03 | 0.00 | 66 | 1024.6 |
| 20260507054505 | 11 | 186 | 0.0 | 1.6 | 0.00 | 0.03 | 0.00 | 65 | 1024.6 |
| 20260507053004 | 11 | 187 | 0.0 | 1.6 | 0.00 | 0.03 | 0.00 | 64 | 1024.8 |
| 20260507051506 | 12 | 187 | 0.0 | 1.6 | 0.00 | 0.03 | 0.00 | 62 | 1024.9 |
| 20260507050100 | 11 | 187 | 0.0 | 0.0 | 0.00 | 0.03 | 0.00 | 65 | 1024.8 |
| 20260507044558 | 11 | 187 | 0.0 | 1.6 | 0.00 | 0.03 | 0.00 | 67 | 1025.0 |
| 20260507043053 | 10 | 184 | 0.0 | 1.6 | 0.00 | 0.03 | 0.00 | 75 | 1024.9 |
| 20260507041550 | 10 | 169 | 0.0 | 1.6 | 0.00 | 0.03 | 0.00 | 78 | 1025.0 |
| 20260507040048 | 10 | 175 | 0.0 | 1.6 | 0.00 | 0.03 | 0.03 | 79 | 1025.0 |
| 20260507034535 | 10 | 188 | 0.0 | 3.2 | 0.00 | 0.03 | 0.03 | 79 | 1024.8 |
| 20260507033036 | -17 | 0.0 | 0.0 | 0.00 | 0.03 | 0.03 | 1024.6 | ||
| 20260507031531 | -17 | 0.0 | 0.0 | 0.00 | 0.03 | 0.03 | 1024.5 | ||
| 20260507030027 | -17 | 0.0 | 0.0 | 0.00 | 0.03 | 0.03 | 1024.3 | ||
| 20260507024523 | -17 | 0.0 | 0.0 | 0.00 | 0.03 | 0.03 | 1024.2 | ||
| 20260507023016 | -17 | 0.0 | 0.0 | 0.00 | 0.03 | 0.03 | 1024.1 | ||
| 20260507021511 | -17 | 0.0 | 0.0 | 0.00 | 0.03 | 0.03 | 1024.0 | ||
| 20260507020008 | -17 | 0.0 | 0.0 | 0.00 | 0.03 | 0.03 | 1023.9 | ||
| 20260507014602 | -17 | 0.0 | 0.0 | 0.00 | 0.03 | 0.03 | 1023.9 | ||
| 20260507013047 | -17 | 0.0 | 0.0 | 0.00 | 0.03 | 0.03 | 1023.9 | ||
| 20260507011524 | -17 | 0.0 | 0.0 | 0.00 | 0.03 | 0.03 | 1023.7 | ||
| 20260507010018 | -17 | 0.0 | 0.0 | 0.00 | 0.03 | 0.03 | 1023.7 | ||
| 20260507004529 | -17 | 0.0 | 0.0 | 0.00 | 0.03 | 0.03 | 1023.7 | ||
| 20260507003009 | -17 | 0.0 | 0.0 | 0.00 | 0.03 | 0.03 | 1023.6 | ||
| 20260507001504 | -17 | 0.0 | 0.0 | 0.00 | 0.03 | 0.03 | 1023.5 | ||
| 20260507000002 | -17 | 0.0 | 0.0 | 0.00 | 0.03 | 0.03 | 1023.3 | ||
| 20260506234605 | -17 | 0.0 | 0.0 | 0.00 | 0.03 | 0.03 | 1023.2 | ||
| 20260506233057 | -17 | 0.0 | 0.0 | 0.00 | 0.03 | 0.03 | 1023.1 | ||
| 20260506231556 | -17 | 0.0 | 0.0 | 0.00 | 0.03 | 0.03 | 1023.2 | ||
| 20260506230041 | -17 | 0.0 | 0.0 | 0.00 | 0.03 | 0.03 | 1023.2 | ||
| 20260506224528 | -17 | 0.0 | 0.0 | 0.00 | 0.03 | 0.03 | 1023.3 | ||
| 20260506223037 | 16 | 84 | 3.2 | 12.9 | 0.00 | 0.03 | 0.03 | 73 | 1023.4 |
| 20260506221521 | 15 | 43 | 1.6 | 11.3 | 0.00 | 0.03 | 0.03 | 73 | 1023.7 |
| 20260506220023 | 15 | 58 | 1.6 | 9.7 | 0.00 | 0.03 | 0.03 | 72 | 1024.0 |
| 20260506214519 | 16 | 62 | 4.8 | 12.9 | 0.00 | 0.03 | 0.03 | 68 | 1024.1 |
| 20260506213014 | -17 | 0.0 | 0.0 | 0.00 | 0.03 | 0.03 | 1024.4 | ||
| 20260506211514 | -17 | 0.0 | 0.0 | 0.00 | 0.03 | 0.03 | 1024.4 | ||
| 20260506210101 | -17 | 0.0 | 0.0 | 0.00 | 0.03 | 0.03 | 1024.5 | ||
| 20260506204556 | -17 | 0.0 | 0.0 | 0.00 | 0.03 | 0.03 | 1024.4 | ||
| 20260506203048 | -17 | 0.0 | 0.0 | 0.00 | 0.03 | 0.03 | 1024.4 | ||
| 20260506201554 | -17 | 0.0 | 0.0 | 0.00 | 0.03 | 0.03 | 1024.6 | ||
| 20260506200036 | -17 | 0.0 | 0.0 | 0.00 | 0.03 | 0.03 | 1024.6 | ||
| 20260506194532 | -17 | 0.0 | 0.0 | 0.00 | 0.03 | 0.03 | 1024.7 | ||
| 20260506193028 | -17 | 0.0 | 0.0 | 0.00 | 0.03 | 0.03 | 1024.7 | ||
| 20260506191524 | -17 | 0.0 | 0.0 | 0.00 | 0.03 | 0.03 | 1024.9 | ||
| 20260506190001 | -17 | 0.0 | 0.0 | 0.00 | 0.03 | 0.03 | 1024.9 | ||
| 20260506184608 | -17 | 0.0 | 0.0 | 0.00 | 0.03 | 0.03 | 1024.8 | ||
| 20260506183101 | -17 | 0.0 | 0.0 | 0.00 | 0.03 | 0.03 | 1024.8 | ||
| 20260506181548 | -17 | 0.0 | 0.0 | 0.00 | 0.03 | 0.03 | 1024.8 | ||
| 20260506180048 | -17 | 0.0 | 0.0 | 0.00 | 0.03 | 0.03 | 1024.8 | ||
| 20260506174542 | -17 | 0.0 | 0.0 | 0.00 | 0.03 | 0.03 | 1024.7 | ||
| 20260506173017 | -17 | 0.0 | 0.0 | 0.00 | 0.03 | 0.03 | 1024.7 | ||
| 20260506171518 | -17 | 0.0 | 0.0 | 0.00 | 0.03 | 0.03 | 1024.6 | ||
| 20260506170113 | -17 | 0.0 | 0.0 | 0.00 | 0.03 | 0.03 | 1024.6 | ||
| 20260506164553 | 11 | 116 | 0.0 | 3.2 | 0.00 | 0.03 | 0.03 | 94 | 1024.5 |
| 20260506163101 | 10 | 168 | 0.0 | 0.0 | 0.00 | 0.03 | 0.03 | 96 | 1024.7 |
| 20260506161546 | 10 | 168 | 0.0 | 0.0 | 0.00 | 0.03 | 0.03 | 97 | 1024.7 |